sensor_id;sensor_type;location;lat;lon;timestamp;pressure;altitude;pressure_sealevel;temperature;humidity
55418;BME280;41287;47.554;7.844;2022-09-09T00:04:27;97773.84;;;22.73;59.92
55418;BME280;41287;47.554;7.844;2022-09-09T00:10:15;97777.72;;;22.72;60.26
55418;BME280;41287;47.554;7.844;2022-09-09T00:15:49;97800.81;;;22.75;59.94
55418;BME280;41287;47.554;7.844;2022-09-09T00:21:06;97821.06;;;22.74;59.99
55418;BME280;41287;47.554;7.844;2022-09-09T00:23:42;97792.63;;;22.75;60.17
55418;BME280;41287;47.554;7.844;2022-09-09T00:26:16;97800.03;;;22.74;59.94
55418;BME280;41287;47.554;7.844;2022-09-09T00:31:27;97798.06;;;22.75;60.35
55418;BME280;41287;47.554;7.844;2022-09-09T00:33:53;97789.88;;;22.75;59.93
55418;BME280;41287;47.554;7.844;2022-09-09T00:36:22;97787.94;;;22.75;60.03
55418;BME280;41287;47.554;7.844;2022-09-09T00:38:57;97775.44;;;22.74;60.12
55418;BME280;41287;47.554;7.844;2022-09-09T00:49:59;97788.72;;;22.76;60.43
55418;BME280;41287;47.554;7.844;2022-09-09T00:52:41;97789.88;;;22.75;60.19
55418;BME280;41287;47.554;7.844;2022-09-09T00:58:16;97771.19;;;22.77;60.18
55418;BME280;41287;47.554;7.844;2022-09-09T01:00:49;97766.44;;;22.74;60.26
55418;BME280;41287;47.554;7.844;2022-09-09T01:06:14;97755.53;;;22.74;60.04
55418;BME280;41287;47.554;7.844;2022-09-09T01:11:42;97768.03;;;22.75;60.35
55418;BME280;41287;47.554;7.844;2022-09-09T01:22:21;97805.47;;;22.74;60.02
55418;BME280;41287;47.554;7.844;2022-09-09T01:27:33;97781.69;;;22.75;59.96
55418;BME280;41287;47.554;7.844;2022-09-09T01:29:59;97796.13;;;22.75;60.38
55418;BME280;41287;47.554;7.844;2022-09-09T01:32:42;97798.06;;;22.75;60.12
55418;BME280;41287;47.554;7.844;2022-09-09T01:35:19;97795.34;;;22.75;59.97
55418;BME280;41287;47.554;7.844;2022-09-09T01:37:49;97799.66;;;22.76;60.20
55418;BME280;41287;47.554;7.844;2022-09-09T01:40:14;97804.75;;;22.77;60.37
55418;BME280;41287;47.554;7.844;2022-09-09T01:42:40;97793.03;;;22.77;60.24
55418;BME280;41287;47.554;7.844;2022-09-09T01:45:06;97792.25;;;22.76;60.04
55418;BME280;41287;47.554;7.844;2022-09-09T01:47:31;97798.50;;;22.77;60.01
55418;BME280;41287;47.554;7.844;2022-09-09T01:49:59;97800.09;;;22.78;60.36
55418;BME280;41287;47.554;7.844;2022-09-09T01:52:26;97801.25;;;22.77;60.03
55418;BME280;41287;47.554;7.844;2022-09-09T01:54:51;97793.03;;;22.77;60.17
55418;BME280;41287;47.554;7.844;2022-09-09T01:57:45;97791.81;;;22.74;60.37
55418;BME280;41287;47.554;7.844;2022-09-09T02:00:17;97794.63;;;22.78;59.96
55418;BME280;41287;47.554;7.844;2022-09-09T02:03:23;97801.59;;;22.75;60.15
55418;BME280;41287;47.554;7.844;2022-09-09T02:08:42;97793.41;;;22.75;60.23
55418;BME280;41287;47.554;7.844;2022-09-09T02:11:17;97785.22;;;22.75;60.46
55418;BME280;41287;47.554;7.844;2022-09-09T02:13:48;97793.03;;;22.77;60.08
55418;BME280;41287;47.554;7.844;2022-09-09T02:19:30;97790.66;;;22.75;60.42
55418;BME280;41287;47.554;7.844;2022-09-09T02:21:59;97793.47;;;22.79;60.20
55418;BME280;41287;47.554;7.844;2022-09-09T02:24:29;97786.78;;;22.76;60.06
55418;BME280;41287;47.554;7.844;2022-09-09T02:26:56;97789.16;;;22.78;60.19
55418;BME280;41287;47.554;7.844;2022-09-09T02:29:30;97787.94;;;22.75;60.57
55418;BME280;41287;47.554;7.844;2022-09-09T02:31:59;97789.16;;;22.78;60.24
55418;BME280;41287;47.554;7.844;2022-09-09T02:34:30;97779.75;;;22.75;60.17
55418;BME280;41287;47.554;7.844;2022-09-09T02:36:57;97780.97;;;22.78;60.52
55418;BME280;41287;47.554;7.844;2022-09-09T02:39:25;97782.91;;;22.77;60.14
55418;BME280;41287;47.554;7.844;2022-09-09T02:41:50;97776.66;;;22.77;60.20
55418;BME280;41287;47.554;7.844;2022-09-09T02:44:17;97767.31;;;22.78;60.38
55418;BME280;41287;47.554;7.844;2022-09-09T02:47:07;97757.91;;;22.75;60.45
55418;BME280;41287;47.554;7.844;2022-09-09T02:50:13;97751.28;;;22.76;60.48
55418;BME280;41287;47.554;7.844;2022-09-09T02:55:54;97770.41;;;22.76;60.14
55418;BME280;41287;47.554;7.844;2022-09-09T02:58:22;97769.25;;;22.77;60.00
55418;BME280;41287;47.554;7.844;2022-09-09T03:00:50;97774.72;;;22.77;60.40
55418;BME280;41287;47.554;7.844;2022-09-09T03:03:17;97775.50;;;22.78;60.17
55418;BME280;41287;47.554;7.844;2022-09-09T03:05:43;97771.19;;;22.77;60.06
55418;BME280;41287;47.554;7.844;2022-09-09T03:08:11;97767.66;;;22.76;60.54
55418;BME280;41287;47.554;7.844;2022-09-09T03:10:38;97773.91;;;22.77;60.48
55418;BME280;41287;47.554;7.844;2022-09-09T03:13:03;97768.47;;;22.77;60.18
55418;BME280;41287;47.554;7.844;2022-09-09T03:15:32;97768.47;;;22.77;60.46
55418;BME280;41287;47.554;7.844;2022-09-09T03:17:58;97765.72;;;22.77;60.54
55418;BME280;41287;47.554;7.844;2022-09-09T03:20:27;97773.91;;;22.77;60.48
55418;BME280;41287;47.554;7.844;2022-09-09T03:22:53;97779.03;;;22.78;60.58
55418;BME280;41287;47.554;7.844;2022-09-09T03:25:20;97772.78;;;22.78;60.35
55418;BME280;41287;47.554;7.844;2022-09-09T03:27:47;97772.78;;;22.78;60.38
55418;BME280;41287;47.554;7.844;2022-09-09T03:30:13;97775.50;;;22.78;60.29
55418;BME280;41287;47.554;7.844;2022-09-09T03:32:38;97772.78;;;22.78;60.40
55418;BME280;41287;47.554;7.844;2022-09-09T03:35:05;97776.28;;;22.78;60.49
55418;BME280;41287;47.554;7.844;2022-09-09T03:37:30;97770.81;;;22.78;60.16
55418;BME280;41287;47.554;7.844;2022-09-09T03:39:56;97768.88;;;22.79;60.29
55418;BME280;41287;47.554;7.844;2022-09-09T03:42:22;97768.09;;;22.78;59.97
55418;BME280;41287;47.554;7.844;2022-09-09T03:44:48;97758.72;;;22.79;60.45
55418;BME280;41287;47.554;7.844;2022-09-09T03:47:18;97759.13;;;22.78;59.94
55418;BME280;41287;47.554;7.844;2022-09-09T03:49:45;97761.44;;;22.79;60.35
55418;BME280;41287;47.554;7.844;2022-09-09T03:52:11;97764.19;;;22.79;60.17
55418;BME280;41287;47.554;7.844;2022-09-09T03:54:36;97759.91;;;22.78;60.22
55418;BME280;41287;47.554;7.844;2022-09-09T03:57:03;97761.44;;;22.79;60.17
55418;BME280;41287;47.554;7.844;2022-09-09T03:59:28;97766.91;;;22.79;60.13
55418;BME280;41287;47.554;7.844;2022-09-09T04:01:54;97761.44;;;22.79;60.06
55418;BME280;41287;47.554;7.844;2022-09-09T04:04:20;97760.69;;;22.79;60.19
55418;BME280;41287;47.554;7.844;2022-09-09T04:06:46;97756.78;;;22.80;60.38
55418;BME280;41287;47.554;7.844;2022-09-09T04:09:13;97750.53;;;22.79;60.18
55418;BME280;41287;47.554;7.844;2022-09-09T04:11:38;97745.13;;;22.83;60.37
55418;BME280;41287;47.554;7.844;2022-09-09T04:14:04;97749.47;;;22.88;60.63
55418;BME280;41287;47.554;7.844;2022-09-09T04:16:32;97760.47;;;22.91;60.87
55418;BME280;41287;47.554;7.844;2022-09-09T04:18:58;97756.19;;;22.94;61.01
55418;BME280;41287;47.554;7.844;2022-09-09T04:21:25;97759.34;;;22.96;62.25
55418;BME280;41287;47.554;7.844;2022-09-09T04:23:52;97760.56;;;22.98;63.32
55418;BME280;41287;47.554;7.844;2022-09-09T04:26:18;97763.69;;;23.00;64.35
55418;BME280;41287;47.554;7.844;2022-09-09T04:28:43;97762.53;;;23.01;64.87
55418;BME280;41287;47.554;7.844;2022-09-09T04:31:15;97774.69;;;23.04;66.29
55418;BME280;41287;47.554;7.844;2022-09-09T04:33:41;97768.47;;;23.07;66.54
55418;BME280;41287;47.554;7.844;2022-09-09T04:36:07;97766.94;;;23.09;67.15
55418;BME280;41287;47.554;7.844;2022-09-09T04:38:33;97771.28;;;23.14;68.01
55418;BME280;41287;47.554;7.844;2022-09-09T04:40:58;97763.50;;;23.16;68.41
55418;BME280;41287;47.554;7.844;2022-09-09T04:43:24;97770.19;;;23.18;68.77
55418;BME280;41287;47.554;7.844;2022-09-09T04:45:51;97770.22;;;23.22;69.98
55418;BME280;41287;47.554;7.844;2022-09-09T04:48:17;97782.75;;;23.23;69.09
55418;BME280;41287;47.554;7.844;2022-09-09T04:50:43;97784.22;;;23.17;65.87
55418;BME280;41287;47.554;7.844;2022-09-09T04:53:08;97775.09;;;23.06;65.25
55418;BME280;41287;47.554;7.844;2022-09-09T04:55:35;97772.28;;;22.99;64.20
55418;BME280;41287;47.554;7.844;2022-09-09T04:58:05;97775.31;;;22.94;63.65
55418;BME280;41287;47.554;7.844;2022-09-09T05:00:30;97777.59;;;22.88;63.37
55418;BME280;41287;47.554;7.844;2022-09-09T05:02:56;97779.50;;;22.84;62.56
55418;BME280;41287;47.554;7.844;2022-09-09T05:05:21;97778.28;;;22.81;61.81
55418;BME280;41287;47.554;7.844;2022-09-09T05:07:47;97779.38;;;22.77;61.86
55418;BME280;41287;47.554;7.844;2022-09-09T05:10:13;97775.78;;;22.73;61.53
55418;BME280;41287;47.554;7.844;2022-09-09T05:12:39;97773.00;;;22.69;61.11
55418;BME280;41287;47.554;7.844;2022-09-09T05:15:05;97774.50;;;22.67;60.89
55418;BME280;41287;47.554;7.844;2022-09-09T05:17:30;97780.34;;;22.65;60.65
55418;BME280;41287;47.554;7.844;2022-09-09T05:19:56;97771.31;;;22.61;60.20
55418;BME280;41287;47.554;7.844;2022-09-09T05:22:22;97776.72;;;22.58;60.43
55418;BME280;41287;47.554;7.844;2022-09-09T05:24:49;97781.75;;;22.56;59.75
55418;BME280;41287;47.554;7.844;2022-09-09T05:27:16;97777.81;;;22.53;60.07
55418;BME280;41287;47.554;7.844;2022-09-09T05:29:43;97771.53;;;22.49;59.62
55418;BME280;41287;47.554;7.844;2022-09-09T05:32:09;97774.59;;;22.48;59.81
55418;BME280;41287;47.554;7.844;2022-09-09T05:34:35;97778.84;;;22.45;59.55
55418;BME280;41287;47.554;7.844;2022-09-09T05:37:02;97785.50;;;22.44;59.35
55418;BME280;41287;47.554;7.844;2022-09-09T05:39:27;97784.25;;;22.41;59.56
55418;BME280;41287;47.554;7.844;2022-09-09T05:41:52;97789.69;;;22.38;59.18
55418;BME280;41287;47.554;7.844;2022-09-09T05:44:18;97778.34;;;22.36;59.35
55418;BME280;41287;47.554;7.844;2022-09-09T05:46:44;97779.84;;;22.33;59.10
55418;BME280;41287;47.554;7.844;2022-09-09T05:49:10;97777.84;;;22.30;59.45
55418;BME280;41287;47.554;7.844;2022-09-09T05:51:35;97775.47;;;22.29;59.19
55418;BME280;41287;47.554;7.844;2022-09-09T05:54:00;97771.53;;;22.26;59.09
55418;BME280;41287;47.554;7.844;2022-09-09T05:56:28;97770.75;;;22.26;59.06
55418;BME280;41287;47.554;7.844;2022-09-09T05:58:55;97780.47;;;22.23;59.10
55418;BME280;41287;47.554;7.844;2022-09-09T06:01:26;97800.66;;;22.19;59.11
55418;BME280;41287;47.554;7.844;2022-09-09T06:03:52;97794.41;;;22.18;58.87
55418;BME280;41287;47.554;7.844;2022-09-09T06:06:30;97800.59;;;22.15;58.33
55418;BME280;41287;47.554;7.844;2022-09-09T06:08:56;97799.38;;;22.13;58.68
55418;BME280;41287;47.554;7.844;2022-09-09T06:11:25;97810.66;;;22.11;58.75
55418;BME280;41287;47.554;7.844;2022-09-09T06:13:51;97799.31;;;22.09;58.94
55418;BME280;41287;47.554;7.844;2022-09-09T06:16:23;97801.25;;;22.09;58.97
55418;BME280;41287;47.554;7.844;2022-09-09T06:18:54;97798.09;;;22.06;59.12
55418;BME280;41287;47.554;7.844;2022-09-09T06:21:27;97796.53;;;22.05;59.03
55418;BME280;41287;47.554;7.844;2022-09-09T06:23:56;97800.41;;;22.04;58.78
55418;BME280;41287;47.554;7.844;2022-09-09T06:28:54;97798.75;;;22.00;58.79
55418;BME280;41287;47.554;7.844;2022-09-09T06:31:21;97808.88;;;21.99;58.56
55418;BME280;41287;47.554;7.844;2022-09-09T06:33:48;97801.06;;;21.98;58.95
55418;BME280;41287;47.554;7.844;2022-09-09T06:36:19;97806.91;;;21.96;59.23
55418;BME280;41287;47.554;7.844;2022-09-09T06:38:45;97806.91;;;21.96;59.15
55418;BME280;41287;47.554;7.844;2022-09-09T06:41:12;97806.44;;;21.94;59.19
55418;BME280;41287;47.554;7.844;2022-09-09T06:43:38;97804.06;;;21.93;59.13
55418;BME280;41287;47.554;7.844;2022-09-09T06:46:09;97798.97;;;21.91;59.37
55418;BME280;41287;47.554;7.844;2022-09-09T06:48:35;97802.88;;;21.90;59.37
55418;BME280;41287;47.554;7.844;2022-09-09T06:51:11;97803.22;;;21.89;59.40
55418;BME280;41287;47.554;7.844;2022-09-09T06:53:38;97801.28;;;21.89;59.22
55418;BME280;41287;47.554;7.844;2022-09-09T06:58:36;97819.59;;;21.89;59.54
55418;BME280;41287;47.554;7.844;2022-09-09T07:01:05;97817.66;;;21.89;59.44
55418;BME280;41287;47.554;7.844;2022-09-09T07:03:31;97827.41;;;21.90;59.37
55418;BME280;41287;47.554;7.844;2022-09-09T07:05:57;97836.34;;;21.91;59.98
55418;BME280;41287;47.554;7.844;2022-09-09T07:08:24;97832.88;;;21.90;60.10
55418;BME280;41287;47.554;7.844;2022-09-09T07:10:51;97834.00;;;21.89;60.27
55418;BME280;41287;47.554;7.844;2022-09-09T07:13:19;97832.00;;;21.86;59.98
55418;BME280;41287;47.554;7.844;2022-09-09T07:15:49;97819.50;;;21.85;60.50
55418;BME280;41287;47.554;7.844;2022-09-09T07:18:14;97824.97;;;21.85;60.60
55418;BME280;41287;47.554;7.844;2022-09-09T07:20:40;97830.75;;;21.84;60.32
55418;BME280;41287;47.554;7.844;2022-09-09T07:23:06;97835.81;;;21.82;60.73
55418;BME280;41287;47.554;7.844;2022-09-09T07:25:31;97836.16;;;21.80;60.79
55418;BME280;41287;47.554;7.844;2022-09-09T07:27:57;97840.84;;;21.80;60.76
55418;BME280;41287;47.554;7.844;2022-09-09T07:30:22;97838.47;;;21.78;61.07
55418;BME280;41287;47.554;7.844;2022-09-09T07:32:50;97830.28;;;21.78;61.20
55418;BME280;41287;47.554;7.844;2022-09-09T07:35:21;97845.84;;;21.78;61.48
55418;BME280;41287;47.554;7.844;2022-09-09T07:37:47;97835.31;;;21.76;61.37
55418;BME280;41287;47.554;7.844;2022-09-09T07:40:12;97836.13;;;21.77;61.27
55418;BME280;41287;47.554;7.844;2022-09-09T07:42:37;97841.91;;;21.75;61.65
55418;BME280;41287;47.554;7.844;2022-09-09T07:45:03;97843.50;;;21.76;61.39
55418;BME280;41287;47.554;7.844;2022-09-09T07:47:29;97849.81;;;21.80;61.39
55418;BME280;41287;47.554;7.844;2022-09-09T07:49:54;97851.81;;;21.83;61.33
55418;BME280;41287;47.554;7.844;2022-09-09T07:52:21;97858.13;;;21.87;60.98
55418;BME280;41287;47.554;7.844;2022-09-09T07:54:46;97848.44;;;21.90;61.30
55418;BME280;41287;47.554;7.844;2022-09-09T07:57:12;97851.59;;;21.92;60.87
55418;BME280;41287;47.554;7.844;2022-09-09T07:59:37;97853.94;;;21.93;60.58
55418;BME280;41287;47.554;7.844;2022-09-09T08:02:03;97858.72;;;21.96;60.81
55418;BME280;41287;47.554;7.844;2022-09-09T08:04:28;97861.06;;;21.98;60.71
55418;BME280;41287;47.554;7.844;2022-09-09T08:06:56;97857.19;;;21.99;60.59
55418;BME280;41287;47.554;7.844;2022-09-09T08:09:23;97863.09;;;22.01;60.68
55418;BME280;41287;47.554;7.844;2022-09-09T08:11:54;97855.34;;;22.03;60.77
55418;BME280;41287;47.554;7.844;2022-09-09T08:14:21;97858.88;;;22.03;60.62
55418;BME280;41287;47.554;7.844;2022-09-09T08:16:49;97862.00;;;22.05;60.36
55418;BME280;41287;47.554;7.844;2022-09-09T08:19:15;97864.38;;;22.07;60.52
55418;BME280;41287;47.554;7.844;2022-09-09T08:21:42;97864.81;;;22.09;60.64
55418;BME280;41287;47.554;7.844;2022-09-09T08:24:12;97869.13;;;22.10;60.83
55418;BME280;41287;47.554;7.844;2022-09-09T08:26:42;97867.94;;;22.11;60.79
55418;BME280;41287;47.554;7.844;2022-09-09T08:29:08;97862.13;;;22.13;60.81
55418;BME280;41287;47.554;7.844;2022-09-09T08:31:44;97862.13;;;22.13;60.40
55418;BME280;41287;47.554;7.844;2022-09-09T08:34:10;97866.88;;;22.16;60.63
55418;BME280;41287;47.554;7.844;2022-09-09T08:36:40;97868.81;;;22.15;60.66
55418;BME280;41287;47.554;7.844;2022-09-09T08:39:08;97870.41;;;22.16;61.04
55418;BME280;41287;47.554;7.844;2022-09-09T08:44:32;97864.56;;;22.18;60.53
55418;BME280;41287;47.554;7.844;2022-09-09T08:47:39;97857.16;;;22.18;60.63
55418;BME280;41287;47.554;7.844;2022-09-09T08:52:51;97867.72;;;22.20;60.59
55418;BME280;41287;47.554;7.844;2022-09-09T08:55:22;97866.59;;;22.21;60.51
55418;BME280;41287;47.554;7.844;2022-09-09T08:57:51;97866.59;;;22.21;60.51
55418;BME280;41287;47.554;7.844;2022-09-09T09:00:18;97872.81;;;22.21;60.55
55418;BME280;41287;47.554;7.844;2022-09-09T09:05:37;97870.88;;;22.22;60.70
55418;BME280;41287;47.554;7.844;2022-09-09T09:10:56;97869.38;;;22.24;60.32
55418;BME280;41287;47.554;7.844;2022-09-09T09:16:10;97860.41;;;22.24;60.29
55418;BME280;41287;47.554;7.844;2022-09-09T09:18:41;97862.75;;;22.25;60.30
55418;BME280;41287;47.554;7.844;2022-09-09T09:21:12;97858.09;;;22.26;60.40
55418;BME280;41287;47.554;7.844;2022-09-09T09:23:47;97860.81;;;22.26;60.47
55418;BME280;41287;47.554;7.844;2022-09-09T09:26:16;97861.59;;;22.26;60.42
55418;BME280;41287;47.554;7.844;2022-09-09T09:28:41;97856.94;;;22.27;60.33
55418;BME280;41287;47.554;7.844;2022-09-09T09:31:10;97854.22;;;22.27;60.67
55418;BME280;41287;47.554;7.844;2022-09-09T09:33:52;97864.78;;;22.28;60.60
55418;BME280;41287;47.554;7.844;2022-09-09T09:36:19;97859.31;;;22.28;60.48
55418;BME280;41287;47.554;7.844;2022-09-09T09:38:56;97841.34;;;22.27;60.75
55418;BME280;41287;47.554;7.844;2022-09-09T09:41:37;97852.69;;;22.29;60.60
55418;BME280;41287;47.554;7.844;2022-09-09T09:44:04;97844.50;;;22.29;60.32
55418;BME280;41287;47.554;7.844;2022-09-09T09:46:30;97846.09;;;22.30;60.65
55418;BME280;41287;47.554;7.844;2022-09-09T09:49:01;97845.31;;;22.30;60.45
55418;BME280;41287;47.554;7.844;2022-09-09T09:51:28;97843.38;;;22.30;60.26
55418;BME280;41287;47.554;7.844;2022-09-09T09:54:09;97843.38;;;22.30;60.36
55418;BME280;41287;47.554;7.844;2022-09-09T09:56:38;97837.53;;;22.32;60.71
55418;BME280;41287;47.554;7.844;2022-09-09T09:59:19;97847.28;;;22.33;60.35
55418;BME280;41287;47.554;7.844;2022-09-09T10:01:45;97839.53;;;22.35;60.37
55418;BME280;41287;47.554;7.844;2022-09-09T10:04:21;97836.44;;;22.36;60.42
55418;BME280;41287;47.554;7.844;2022-09-09T10:06:49;97803.34;;;22.38;60.47
55418;BME280;41287;47.554;7.844;2022-09-09T10:17:20;97820.53;;;22.42;60.03
55418;BME280;41287;47.554;7.844;2022-09-09T10:22:47;97829.16;;;22.44;60.32
55418;BME280;41287;47.554;7.844;2022-09-09T10:25:36;97825.25;;;22.45;60.08
55418;BME280;41287;47.554;7.844;2022-09-09T10:34:02;97808.53;;;22.46;60.39
55418;BME280;41287;47.554;7.844;2022-09-09T10:36:32;97799.19;;;22.48;60.50
55418;BME280;41287;47.554;7.844;2022-09-09T10:39:36;97801.91;;;22.48;60.11
55418;BME280;41287;47.554;7.844;2022-09-09T10:42:08;97803.50;;;22.49;59.97
55418;BME280;41287;47.554;7.844;2022-09-09T10:44:47;97798.03;;;22.49;60.03
55418;BME280;41287;47.554;7.844;2022-09-09T10:47:53;97797.25;;;22.48;60.10
55418;BME280;41287;47.554;7.844;2022-09-09T10:53:20;97793.78;;;22.51;60.45
55418;BME280;41287;47.554;7.844;2022-09-09T10:55:53;97790.28;;;22.51;60.56
55418;BME280;41287;47.554;7.844;2022-09-09T10:58:29;97786.38;;;22.52;60.43
55418;BME280;41287;47.554;7.844;2022-09-09T11:01:01;97785.59;;;22.51;60.29
55418;BME280;41287;47.554;7.844;2022-09-09T11:03:33;97784.06;;;22.54;60.31
55418;BME280;41287;47.554;7.844;2022-09-09T11:06:06;97777.81;;;22.53;60.33
55418;BME280;41287;47.554;7.844;2022-09-09T11:08:36;97775.09;;;22.53;60.54
55418;BME280;41287;47.554;7.844;2022-09-09T11:11:09;97782.91;;;22.55;60.10
55418;BME280;41287;47.554;7.844;2022-09-09T11:13:44;97774.72;;;22.55;59.98
55418;BME280;41287;47.554;7.844;2022-09-09T11:21:58;97766.97;;;22.57;59.99
55418;BME280;41287;47.554;7.844;2022-09-09T11:24:33;97766.16;;;22.56;60.02
55418;BME280;41287;47.554;7.844;2022-09-09T11:27:10;97775.16;;;22.57;60.13
55418;BME280;41287;47.554;7.844;2022-09-09T11:30:05;97761.50;;;22.57;60.23
55418;BME280;41287;47.554;7.844;2022-09-09T11:35:44;97776.34;;;22.59;60.06
55418;BME280;41287;47.554;7.844;2022-09-09T11:38:27;97774.78;;;22.58;60.18
55418;BME280;41287;47.554;7.844;2022-09-09T11:40:59;97775.16;;;22.57;60.33
55418;BME280;41287;47.554;7.844;2022-09-09T11:43:40;97776.72;;;22.58;60.14
55418;BME280;41287;47.554;7.844;2022-09-09T11:46:06;97777.88;;;22.57;59.81
55418;BME280;41287;47.554;7.844;2022-09-09T11:48:43;97773.22;;;22.57;60.01
55418;BME280;41287;47.554;7.844;2022-09-09T11:51:29;97771.28;;;22.58;60.11
55418;BME280;41287;47.554;7.844;2022-09-09T11:53:58;97781.00;;;22.59;59.92
55418;BME280;41287;47.554;7.844;2022-09-09T11:56:28;97777.91;;;22.60;59.90
55418;BME280;41287;47.554;7.844;2022-09-09T12:02:01;97775.97;;;22.61;60.22
55418;BME280;41287;47.554;7.844;2022-09-09T12:04:32;97781.44;;;22.61;59.92
55418;BME280;41287;47.554;7.844;2022-09-09T12:07:23;97783.38;;;22.60;59.81
55418;BME280;41287;47.554;7.844;2022-09-09T12:10:02;97774.81;;;22.62;60.02
55418;BME280;41287;47.554;7.844;2022-09-09T12:12:30;97773.69;;;22.63;59.84
55418;BME280;41287;47.554;7.844;2022-09-09T12:15:00;97766.63;;;22.62;59.85
55418;BME280;41287;47.554;7.844;2022-09-09T12:17:28;97773.69;;;22.63;60.03
55418;BME280;41287;47.554;7.844;2022-09-09T12:20:26;97767.44;;;22.62;60.20
55418;BME280;41287;47.554;7.844;2022-09-09T12:22:55;97767.84;;;22.64;60.02
55418;BME280;41287;47.554;7.844;2022-09-09T12:28:18;97759.66;;;22.64;60.18
55418;BME280;41287;47.554;7.844;2022-09-09T12:36:37;97770.19;;;22.66;59.90
55418;BME280;41287;47.554;7.844;2022-09-09T12:39:17;97776.84;;;22.65;60.02
55418;BME280;41287;47.554;7.844;2022-09-09T12:41:52;97767.84;;;22.64;59.82
55418;BME280;41287;47.554;7.844;2022-09-09T12:44:22;97776.44;;;22.66;59.76
55418;BME280;41287;47.554;7.844;2022-09-09T12:46:48;97762.78;;;22.66;59.82
55418;BME280;41287;47.554;7.844;2022-09-09T12:52:07;97756.19;;;22.67;60.24
55418;BME280;41287;47.554;7.844;2022-09-09T12:54:35;97759.69;;;22.68;59.95
55418;BME280;41287;47.554;7.844;2022-09-09T12:57:02;97764.38;;;22.67;60.14
55418;BME280;41287;47.554;7.844;2022-09-09T12:59:36;97763.59;;;22.67;59.94
55418;BME280;41287;47.554;7.844;2022-09-09T13:02:02;97768.69;;;22.68;60.10
55418;BME280;41287;47.554;7.844;2022-09-09T13:04:27;97764.00;;;22.69;60.17
55418;BME280;41287;47.554;7.844;2022-09-09T13:06:53;97759.69;;;22.68;59.71
55418;BME280;41287;47.554;7.844;2022-09-09T13:09:19;97766.75;;;22.69;59.72
55418;BME280;41287;47.554;7.844;2022-09-09T13:11:49;97764.00;;;22.69;60.19
55418;BME280;41287;47.554;7.844;2022-09-09T13:14:29;97763.22;;;22.68;60.05
55418;BME280;41287;47.554;7.844;2022-09-09T13:17:00;97760.13;;;22.70;60.07
55418;BME280;41287;47.554;7.844;2022-09-09T13:19:26;97773.44;;;22.71;59.94
55418;BME280;41287;47.554;7.844;2022-09-09T13:21:55;97771.84;;;22.70;59.77
55418;BME280;41287;47.554;7.844;2022-09-09T13:24:27;97779.25;;;22.70;59.70
55418;BME280;41287;47.554;7.844;2022-09-09T13:27:28;97784.34;;;22.71;59.83
55418;BME280;41287;47.554;7.844;2022-09-09T13:29:55;97781.25;;;22.73;59.77
55418;BME280;41287;47.554;7.844;2022-09-09T13:32:23;97774.22;;;22.72;59.69
55418;BME280;41287;47.554;7.844;2022-09-09T13:34:53;97784.34;;;22.71;59.57
55418;BME280;41287;47.554;7.844;2022-09-09T13:37:36;97773.44;;;22.71;59.72
55418;BME280;41287;47.554;7.844;2022-09-09T13:40:04;97766.78;;;22.72;59.32
55418;BME280;41287;47.554;7.844;2022-09-09T13:42:32;97761.31;;;22.72;59.49
55418;BME280;41287;47.554;7.844;2022-09-09T13:45:03;97761.31;;;22.72;59.05
55418;BME280;41287;47.554;7.844;2022-09-09T13:47:35;97750.41;;;22.72;59.50
55418;BME280;41287;47.554;7.844;2022-09-09T13:50:24;97745.31;;;22.71;59.26
55418;BME280;41287;47.554;7.844;2022-09-09T13:52:58;97752.38;;;22.72;59.37
55418;BME280;41287;47.554;7.844;2022-09-09T13:55:28;97751.22;;;22.73;59.33
55418;BME280;41287;47.554;7.844;2022-09-09T13:58:00;97745.75;;;22.73;58.94
55418;BME280;41287;47.554;7.844;2022-09-09T14:00:28;97743.03;;;22.73;59.28
55418;BME280;41287;47.554;7.844;2022-09-09T14:02:54;97741.88;;;22.74;59.25
55418;BME280;41287;47.554;7.844;2022-09-09T14:05:22;97741.44;;;22.72;59.16
55418;BME280;41287;47.554;7.844;2022-09-09T14:07:49;97735.63;;;22.73;59.39
55418;BME280;41287;47.554;7.844;2022-09-09T14:10:14;97732.09;;;22.73;59.43
55418;BME280;41287;47.554;7.844;2022-09-09T14:12:40;97739.13;;;22.74;59.33
55418;BME280;41287;47.554;7.844;2022-09-09T14:15:07;97734.47;;;22.74;59.24
55418;BME280;41287;47.554;7.844;2022-09-09T14:17:34;97731.72;;;22.74;59.39
55418;BME280;41287;47.554;7.844;2022-09-09T14:20:03;97733.31;;;22.75;59.37
55418;BME280;41287;47.554;7.844;2022-09-09T14:22:36;97727.84;;;22.75;59.11
55418;BME280;41287;47.554;7.844;2022-09-09T14:25:04;97719.66;;;22.75;59.46
55418;BME280;41287;47.554;7.844;2022-09-09T14:27:30;97719.66;;;22.75;59.50
55418;BME280;41287;47.554;7.844;2022-09-09T14:29:55;97711.47;;;22.75;59.47
55418;BME280;41287;47.554;7.844;2022-09-09T14:32:22;97723.19;;;22.76;59.32
55418;BME280;41287;47.554;7.844;2022-09-09T14:34:48;97723.97;;;22.76;59.02
55418;BME280;41287;47.554;7.844;2022-09-09T14:37:18;97722.03;;;22.77;59.05
55418;BME280;41287;47.554;7.844;2022-09-09T14:39:44;97709.50;;;22.76;59.33
55418;BME280;41287;47.554;7.844;2022-09-09T14:42:11;97720.06;;;22.77;59.45
55418;BME280;41287;47.554;7.844;2022-09-09T14:44:40;97714.63;;;22.77;59.29
55418;BME280;41287;47.554;7.844;2022-09-09T14:47:06;97726.34;;;22.78;59.10
55418;BME280;41287;47.554;7.844;2022-09-09T14:49:33;97723.59;;;22.78;59.49
55418;BME280;41287;47.554;7.844;2022-09-09T14:51:58;97726.34;;;22.78;59.28
55418;BME280;41287;47.554;7.844;2022-09-09T14:54:25;97724.75;;;22.77;59.19
55418;BME280;41287;47.554;7.844;2022-09-09T14:56:53;97729.84;;;22.78;59.38
55418;BME280;41287;47.554;7.844;2022-09-09T14:59:18;97708.00;;;22.78;59.09
55418;BME280;41287;47.554;7.844;2022-09-09T15:01:44;97709.94;;;22.78;59.10
55418;BME280;41287;47.554;7.844;2022-09-09T15:04:11;97719.31;;;22.80;59.14
55418;BME280;41287;47.554;7.844;2022-09-09T15:06:37;97719.31;;;22.80;59.38
55418;BME280;41287;47.554;7.844;2022-09-09T15:09:04;97717.00;;;22.79;59.21